X  SluitMETAR luchtvaart weer gegevens      EHRD Rotterdam The Hague Airport

Temperatuur

20°C Temperatuur

10°C Dauwpunt

53% Vochtigheid



Wind

19 KM/U

12 MPH

 5 M/S

10 KTS



270°
Het Westen
Huidig weer

Geheel bewolkt Geheel bewolkt
Luchtdruk 1024.92 (hPa) - 30.27 (in)
Zicht 6.2 (mi) - 10 (km)
Vliegveld
Vliegveld code EHRD

Locatie Rotterdam The Hague Airport 30 (km)

Metar:
EHRD 061325Z AUTO 27010KT 230V310 9999 OVC044 20/10 Q1025 NOSIG

Tijd: 06-07-2022 15:25